sensor_id;sensor_type;location;lat;lon;timestamp;P1;durP1;ratioP1;P2;durP2;ratioP2
59239;SDS011;45010;53.640;10.578;2023-03-01T00:00:36;2.17;;;0.90;;
59239;SDS011;45010;53.640;10.578;2023-03-01T00:03:36;2.28;;;0.90;;
59239;SDS011;45010;53.640;10.578;2023-03-01T00:06:37;1.33;;;0.70;;
59239;SDS011;45010;53.640;10.578;2023-03-01T00:09:37;1.63;;;0.77;;
59239;SDS011;45010;53.640;10.578;2023-03-01T00:12:38;1.98;;;0.90;;
59239;SDS011;45010;53.640;10.578;2023-03-01T00:15:39;2.03;;;0.93;;
59239;SDS011;45010;53.640;10.578;2023-03-01T00:18:40;1.25;;;0.70;;
59239;SDS011;45010;53.640;10.578;2023-03-01T00:21:40;2.78;;;0.82;;
59239;SDS011;45010;53.640;10.578;2023-03-01T00:24:41;1.65;;;1.00;;
59239;SDS011;45010;53.640;10.578;2023-03-01T00:27:41;1.05;;;0.90;;
59239;SDS011;45010;53.640;10.578;2023-03-01T00:30:41;1.00;;;0.70;;
59239;SDS011;45010;53.640;10.578;2023-03-01T00:33:42;1.30;;;0.80;;
59239;SDS011;45010;53.640;10.578;2023-03-01T00:36:42;0.77;;;0.70;;
59239;SDS011;45010;53.640;10.578;2023-03-01T00:39:43;1.65;;;0.70;;
59239;SDS011;45010;53.640;10.578;2023-03-01T00:42:43;1.17;;;0.75;;
59239;SDS011;45010;53.640;10.578;2023-03-01T00:45:43;1.17;;;0.70;;
59239;SDS011;45010;53.640;10.578;2023-03-01T00:48:44;2.10;;;1.00;;
59239;SDS011;45010;53.640;10.578;2023-03-01T00:51:45;2.08;;;0.70;;
59239;SDS011;45010;53.640;10.578;2023-03-01T00:54:45;1.77;;;1.00;;
59239;SDS011;45010;53.640;10.578;2023-03-01T00:57:46;1.20;;;0.70;;
59239;SDS011;45010;53.640;10.578;2023-03-01T01:00:46;1.10;;;0.90;;
59239;SDS011;45010;53.640;10.578;2023-03-01T01:03:51;1.00;;;0.80;;
59239;SDS011;45010;53.640;10.578;2023-03-01T01:06:53;1.70;;;0.80;;
59239;SDS011;45010;53.640;10.578;2023-03-01T01:09:54;0.88;;;0.70;;
59239;SDS011;45010;53.640;10.578;2023-03-01T01:12:54;1.55;;;0.85;;
59239;SDS011;45010;53.640;10.578;2023-03-01T01:15:54;1.58;;;0.80;;
59239;SDS011;45010;53.640;10.578;2023-03-01T01:19:00;1.42;;;0.80;;
59239;SDS011;45010;53.640;10.578;2023-03-01T01:22:01;1.25;;;0.80;;
59239;SDS011;45010;53.640;10.578;2023-03-01T01:25:01;1.05;;;0.70;;
59239;SDS011;45010;53.640;10.578;2023-03-01T01:28:01;1.50;;;0.80;;
59239;SDS011;45010;53.640;10.578;2023-03-01T01:31:02;1.45;;;0.60;;
59239;SDS011;45010;53.640;10.578;2023-03-01T01:34:04;0.60;;;0.60;;
59239;SDS011;45010;53.640;10.578;2023-03-01T01:37:06;1.30;;;0.75;;
59239;SDS011;45010;53.640;10.578;2023-03-01T01:40:08;1.52;;;0.80;;
59239;SDS011;45010;53.640;10.578;2023-03-01T01:43:29;1.00;;;0.70;;
59239;SDS011;45010;53.640;10.578;2023-03-01T01:46:31;1.15;;;0.60;;
59239;SDS011;45010;53.640;10.578;2023-03-01T01:49:38;1.00;;;0.50;;
59239;SDS011;45010;53.640;10.578;2023-03-01T01:52:39;1.13;;;0.90;;
59239;SDS011;45010;53.640;10.578;2023-03-01T01:55:41;1.02;;;0.60;;
59239;SDS011;45010;53.640;10.578;2023-03-01T01:58:45;0.90;;;0.45;;
59239;SDS011;45010;53.640;10.578;2023-03-01T02:01:47;1.23;;;0.70;;
59239;SDS011;45010;53.640;10.578;2023-03-01T02:04:48;1.67;;;0.70;;
59239;SDS011;45010;53.640;10.578;2023-03-01T02:07:51;1.33;;;0.60;;
59239;SDS011;45010;53.640;10.578;2023-03-01T02:10:53;1.15;;;0.70;;
59239;SDS011;45010;53.640;10.578;2023-03-01T02:13:55;1.30;;;0.65;;
59239;SDS011;45010;53.640;10.578;2023-03-01T02:16:56;0.88;;;0.80;;
59239;SDS011;45010;53.640;10.578;2023-03-01T02:20:03;1.30;;;0.60;;
59239;SDS011;45010;53.640;10.578;2023-03-01T02:23:14;1.33;;;0.90;;
59239;SDS011;45010;53.640;10.578;2023-03-01T02:26:23;1.00;;;0.68;;
59239;SDS011;45010;53.640;10.578;2023-03-01T02:29:32;1.20;;;0.80;;
59239;SDS011;45010;53.640;10.578;2023-03-01T02:32:32;3.03;;;0.80;;
59239;SDS011;45010;53.640;10.578;2023-03-01T02:35:37;1.73;;;0.80;;
59239;SDS011;45010;53.640;10.578;2023-03-01T02:38:39;1.45;;;0.68;;
59239;SDS011;45010;53.640;10.578;2023-03-01T02:41:41;1.10;;;0.70;;
59239;SDS011;45010;53.640;10.578;2023-03-01T02:44:45;0.85;;;0.55;;
59239;SDS011;45010;53.640;10.578;2023-03-01T02:47:45;0.98;;;0.80;;
59239;SDS011;45010;53.640;10.578;2023-03-01T02:50:54;1.25;;;0.73;;
59239;SDS011;45010;53.640;10.578;2023-03-01T02:54:28;1.13;;;0.80;;
59239;SDS011;45010;53.640;10.578;2023-03-01T02:57:36;0.80;;;0.70;;
59239;SDS011;45010;53.640;10.578;2023-03-01T03:00:40;1.13;;;0.50;;
59239;SDS011;45010;53.640;10.578;2023-03-01T03:03:45;0.90;;;0.65;;
59239;SDS011;45010;53.640;10.578;2023-03-01T03:06:46;0.90;;;0.60;;
59239;SDS011;45010;53.640;10.578;2023-03-01T03:09:47;1.00;;;0.80;;
59239;SDS011;45010;53.640;10.578;2023-03-01T03:12:55;0.93;;;0.68;;
59239;SDS011;45010;53.640;10.578;2023-03-01T03:15:58;1.05;;;0.70;;
59239;SDS011;45010;53.640;10.578;2023-03-01T03:18:58;1.52;;;0.70;;
59239;SDS011;45010;53.640;10.578;2023-03-01T03:22:04;1.30;;;0.85;;
59239;SDS011;45010;53.640;10.578;2023-03-01T03:25:05;0.88;;;0.70;;
59239;SDS011;45010;53.640;10.578;2023-03-01T03:28:10;1.73;;;0.77;;
59239;SDS011;45010;53.640;10.578;2023-03-01T03:31:10;1.13;;;0.93;;
59239;SDS011;45010;53.640;10.578;2023-03-01T03:34:11;0.77;;;0.68;;
59239;SDS011;45010;53.640;10.578;2023-03-01T03:37:17;1.02;;;0.60;;
59239;SDS011;45010;53.640;10.578;2023-03-01T03:40:39;0.98;;;0.80;;
59239;SDS011;45010;53.640;10.578;2023-03-01T03:43:40;1.10;;;0.60;;
59239;SDS011;45010;53.640;10.578;2023-03-01T03:46:42;0.85;;;0.63;;
59239;SDS011;45010;53.640;10.578;2023-03-01T03:49:42;1.05;;;0.77;;
59239;SDS011;45010;53.640;10.578;2023-03-01T03:52:43;1.25;;;0.73;;
59239;SDS011;45010;53.640;10.578;2023-03-01T03:55:44;0.93;;;0.65;;
59239;SDS011;45010;53.640;10.578;2023-03-01T03:58:44;1.17;;;0.70;;
59239;SDS011;45010;53.640;10.578;2023-03-01T04:01:44;1.17;;;0.50;;
59239;SDS011;45010;53.640;10.578;2023-03-01T04:04:45;0.85;;;0.77;;
59239;SDS011;45010;53.640;10.578;2023-03-01T04:07:45;0.75;;;0.70;;
59239;SDS011;45010;53.640;10.578;2023-03-01T04:10:46;0.70;;;0.70;;
59239;SDS011;45010;53.640;10.578;2023-03-01T04:13:49;1.02;;;0.70;;
59239;SDS011;45010;53.640;10.578;2023-03-01T04:16:50;0.82;;;0.80;;
59239;SDS011;45010;53.640;10.578;2023-03-01T04:19:50;1.08;;;0.65;;
59239;SDS011;45010;53.640;10.578;2023-03-01T04:23:00;1.27;;;0.85;;
59239;SDS011;45010;53.640;10.578;2023-03-01T04:26:10;1.15;;;0.70;;
59239;SDS011;45010;53.640;10.578;2023-03-01T04:29:10;1.15;;;0.70;;
59239;SDS011;45010;53.640;10.578;2023-03-01T04:32:11;1.20;;;0.80;;
59239;SDS011;45010;53.640;10.578;2023-03-01T04:35:13;1.05;;;0.63;;
59239;SDS011;45010;53.640;10.578;2023-03-01T04:38:13;0.70;;;0.52;;
59239;SDS011;45010;53.640;10.578;2023-03-01T04:41:15;1.45;;;0.80;;
59239;SDS011;45010;53.640;10.578;2023-03-01T04:44:17;1.00;;;0.70;;
59239;SDS011;45010;53.640;10.578;2023-03-01T04:47:17;0.82;;;0.80;;
59239;SDS011;45010;53.640;10.578;2023-03-01T04:50:18;0.93;;;0.63;;
59239;SDS011;45010;53.640;10.578;2023-03-01T04:53:23;0.65;;;0.65;;
59239;SDS011;45010;53.640;10.578;2023-03-01T04:56:24;0.60;;;0.60;;
59239;SDS011;45010;53.640;10.578;2023-03-01T04:59:25;0.88;;;0.70;;
59239;SDS011;45010;53.640;10.578;2023-03-01T05:02:25;1.10;;;0.70;;
59239;SDS011;45010;53.640;10.578;2023-03-01T05:05:36;1.05;;;0.75;;
59239;SDS011;45010;53.640;10.578;2023-03-01T05:08:40;0.60;;;0.60;;
59239;SDS011;45010;53.640;10.578;2023-03-01T05:11:42;0.70;;;0.70;;
59239;SDS011;45010;53.640;10.578;2023-03-01T05:14:42;1.30;;;1.10;;
59239;SDS011;45010;53.640;10.578;2023-03-01T05:17:42;0.65;;;0.55;;
59239;SDS011;45010;53.640;10.578;2023-03-01T05:20:43;1.00;;;0.75;;
59239;SDS011;45010;53.640;10.578;2023-03-01T05:23:44;0.70;;;0.60;;
59239;SDS011;45010;53.640;10.578;2023-03-01T05:26:45;0.70;;;0.70;;
59239;SDS011;45010;53.640;10.578;2023-03-01T05:29:48;0.93;;;0.70;;
59239;SDS011;45010;53.640;10.578;2023-03-01T05:32:49;0.90;;;0.60;;
59239;SDS011;45010;53.640;10.578;2023-03-01T05:35:59;0.80;;;0.70;;
59239;SDS011;45010;53.640;10.578;2023-03-01T05:38:59;1.05;;;0.90;;
59239;SDS011;45010;53.640;10.578;2023-03-01T05:42:00;1.35;;;0.95;;
59239;SDS011;45010;53.640;10.578;2023-03-01T05:45:01;1.23;;;0.70;;
59239;SDS011;45010;53.640;10.578;2023-03-01T05:48:01;1.00;;;0.90;;
59239;SDS011;45010;53.640;10.578;2023-03-01T05:51:02;1.15;;;0.63;;
59239;SDS011;45010;53.640;10.578;2023-03-01T05:54:02;1.45;;;0.90;;
59239;SDS011;45010;53.640;10.578;2023-03-01T05:57:05;1.52;;;0.98;;
59239;SDS011;45010;53.640;10.578;2023-03-01T06:00:08;1.13;;;0.80;;
59239;SDS011;45010;53.640;10.578;2023-03-01T06:03:10;1.02;;;0.80;;
59239;SDS011;45010;53.640;10.578;2023-03-01T06:06:12;0.85;;;0.73;;
59239;SDS011;45010;53.640;10.578;2023-03-01T06:09:12;3.05;;;0.95;;
59239;SDS011;45010;53.640;10.578;2023-03-01T06:12:12;1.38;;;0.98;;
59239;SDS011;45010;53.640;10.578;2023-03-01T06:15:14;1.67;;;1.05;;
59239;SDS011;45010;53.640;10.578;2023-03-01T06:18:16;1.38;;;0.80;;
59239;SDS011;45010;53.640;10.578;2023-03-01T06:21:16;1.27;;;1.00;;
59239;SDS011;45010;53.640;10.578;2023-03-01T06:24:17;1.67;;;1.00;;
59239;SDS011;45010;53.640;10.578;2023-03-01T06:27:17;2.25;;;1.00;;
59239;SDS011;45010;53.640;10.578;2023-03-01T06:30:18;1.27;;;0.93;;
59239;SDS011;45010;53.640;10.578;2023-03-01T06:33:19;1.20;;;1.05;;
59239;SDS011;45010;53.640;10.578;2023-03-01T06:36:20;1.20;;;1.10;;
59239;SDS011;45010;53.640;10.578;2023-03-01T06:39:21;2.17;;;1.10;;
59239;SDS011;45010;53.640;10.578;2023-03-01T06:42:22;1.10;;;1.00;;
59239;SDS011;45010;53.640;10.578;2023-03-01T06:45:23;1.60;;;1.00;;
59239;SDS011;45010;53.640;10.578;2023-03-01T06:48:24;1.67;;;1.23;;
59239;SDS011;45010;53.640;10.578;2023-03-01T06:51:25;1.98;;;1.20;;
59239;SDS011;45010;53.640;10.578;2023-03-01T06:54:25;1.20;;;1.10;;
59239;SDS011;45010;53.640;10.578;2023-03-01T06:57:26;1.65;;;1.20;;
59239;SDS011;45010;53.640;10.578;2023-03-01T07:00:27;1.70;;;1.25;;
59239;SDS011;45010;53.640;10.578;2023-03-01T07:03:27;1.42;;;0.90;;
59239;SDS011;45010;53.640;10.578;2023-03-01T07:06:28;1.38;;;1.27;;
59239;SDS011;45010;53.640;10.578;2023-03-01T07:09:28;1.65;;;1.15;;
59239;SDS011;45010;53.640;10.578;2023-03-01T07:12:28;1.45;;;1.05;;
59239;SDS011;45010;53.640;10.578;2023-03-01T07:15:30;1.55;;;1.13;;
59239;SDS011;45010;53.640;10.578;2023-03-01T07:18:30;2.53;;;1.10;;
59239;SDS011;45010;53.640;10.578;2023-03-01T07:21:30;2.78;;;1.35;;
59239;SDS011;45010;53.640;10.578;2023-03-01T07:24:31;1.45;;;1.25;;
59239;SDS011;45010;53.640;10.578;2023-03-01T07:27:32;1.20;;;1.10;;
59239;SDS011;45010;53.640;10.578;2023-03-01T07:30:32;2.75;;;1.25;;
59239;SDS011;45010;53.640;10.578;2023-03-01T07:33:32;2.13;;;1.63;;
59239;SDS011;45010;53.640;10.578;2023-03-01T07:36:33;1.60;;;1.23;;
59239;SDS011;45010;53.640;10.578;2023-03-01T07:39:33;1.98;;;1.55;;
59239;SDS011;45010;53.640;10.578;2023-03-01T07:42:33;1.30;;;1.20;;
59239;SDS011;45010;53.640;10.578;2023-03-01T07:45:34;3.08;;;2.38;;
59239;SDS011;45010;53.640;10.578;2023-03-01T07:48:34;4.47;;;2.88;;
59239;SDS011;45010;53.640;10.578;2023-03-01T07:51:34;2.42;;;2.10;;
59239;SDS011;45010;53.640;10.578;2023-03-01T07:54:35;3.30;;;2.30;;
59239;SDS011;45010;53.640;10.578;2023-03-01T07:57:35;2.70;;;1.67;;
59239;SDS011;45010;53.640;10.578;2023-03-01T08:00:35;3.13;;;2.10;;
59239;SDS011;45010;53.640;10.578;2023-03-01T08:03:36;2.50;;;1.92;;
59239;SDS011;45010;53.640;10.578;2023-03-01T08:06:36;3.97;;;2.10;;
59239;SDS011;45010;53.640;10.578;2023-03-01T08:09:37;5.45;;;1.90;;
59239;SDS011;45010;53.640;10.578;2023-03-01T08:12:37;3.83;;;2.00;;
59239;SDS011;45010;53.640;10.578;2023-03-01T08:15:38;3.50;;;2.42;;
59239;SDS011;45010;53.640;10.578;2023-03-01T08:18:38;2.90;;;2.00;;
59239;SDS011;45010;53.640;10.578;2023-03-01T08:21:39;2.05;;;1.85;;
59239;SDS011;45010;53.640;10.578;2023-03-01T08:24:39;2.83;;;1.88;;
59239;SDS011;45010;53.640;10.578;2023-03-01T08:27:40;4.20;;;1.98;;
59239;SDS011;45010;53.640;10.578;2023-03-01T08:30:40;2.22;;;1.80;;
59239;SDS011;45010;53.640;10.578;2023-03-01T08:33:40;3.20;;;2.20;;
59239;SDS011;45010;53.640;10.578;2023-03-01T08:36:42;2.65;;;1.95;;
59239;SDS011;45010;53.640;10.578;2023-03-01T08:39:44;2.05;;;1.70;;
59239;SDS011;45010;53.640;10.578;2023-03-01T08:42:44;3.10;;;2.15;;
59239;SDS011;45010;53.640;10.578;2023-03-01T08:45:44;3.22;;;1.83;;
59239;SDS011;45010;53.640;10.578;2023-03-01T08:48:45;3.10;;;2.10;;
59239;SDS011;45010;53.640;10.578;2023-03-01T08:51:45;4.18;;;2.05;;
59239;SDS011;45010;53.640;10.578;2023-03-01T08:54:47;2.53;;;2.20;;
59239;SDS011;45010;53.640;10.578;2023-03-01T08:57:48;3.10;;;2.17;;
59239;SDS011;45010;53.640;10.578;2023-03-01T09:00:48;3.17;;;2.00;;
59239;SDS011;45010;53.640;10.578;2023-03-01T09:03:49;3.42;;;2.38;;
59239;SDS011;45010;53.640;10.578;2023-03-01T09:06:49;3.50;;;1.92;;
59239;SDS011;45010;53.640;10.578;2023-03-01T09:09:49;2.63;;;1.73;;
59239;SDS011;45010;53.640;10.578;2023-03-01T09:12:53;3.20;;;1.92;;
59239;SDS011;45010;53.640;10.578;2023-03-01T09:15:53;3.10;;;1.80;;
59239;SDS011;45010;53.640;10.578;2023-03-01T09:18:54;2.53;;;1.67;;
59239;SDS011;45010;53.640;10.578;2023-03-01T09:21:54;3.33;;;2.10;;
59239;SDS011;45010;53.640;10.578;2023-03-01T09:24:55;3.40;;;2.03;;
59239;SDS011;45010;53.640;10.578;2023-03-01T09:27:56;7.82;;;3.10;;
59239;SDS011;45010;53.640;10.578;2023-03-01T09:31:00;1.52;;;1.42;;
59239;SDS011;45010;53.640;10.578;2023-03-01T09:34:01;2.45;;;1.70;;
59239;SDS011;45010;53.640;10.578;2023-03-01T09:37:01;3.78;;;1.88;;
59239;SDS011;45010;53.640;10.578;2023-03-01T09:40:02;2.75;;;1.90;;
59239;SDS011;45010;53.640;10.578;2023-03-01T09:43:08;5.70;;;1.80;;
59239;SDS011;45010;53.640;10.578;2023-03-01T09:46:20;2.17;;;1.73;;
59239;SDS011;45010;53.640;10.578;2023-03-01T09:49:25;4.20;;;1.75;;
59239;SDS011;45010;53.640;10.578;2023-03-01T09:52:41;9.20;;;3.40;;
59239;SDS011;45010;53.640;10.578;2023-03-01T10:00:01;9.50;;;2.75;;
59239;SDS011;45010;53.640;10.578;2023-03-01T10:06:30;6.80;;;2.47;;
59239;SDS011;45010;53.640;10.578;2023-03-01T10:09:32;2.97;;;1.88;;
59239;SDS011;45010;53.640;10.578;2023-03-01T10:12:35;5.22;;;1.90;;
59239;SDS011;45010;53.640;10.578;2023-03-01T10:15:42;4.00;;;2.10;;
59239;SDS011;45010;53.640;10.578;2023-03-01T10:18:50;3.60;;;2.13;;
59239;SDS011;45010;53.640;10.578;2023-03-01T10:21:55;3.85;;;2.10;;
59239;SDS011;45010;53.640;10.578;2023-03-01T10:25:02;3.17;;;2.20;;
59239;SDS011;45010;53.640;10.578;2023-03-01T10:31:44;3.92;;;2.05;;
59239;SDS011;45010;53.640;10.578;2023-03-01T10:34:49;3.45;;;2.10;;
59239;SDS011;45010;53.640;10.578;2023-03-01T10:38:02;3.08;;;1.70;;
59239;SDS011;45010;53.640;10.578;2023-03-01T10:41:06;3.58;;;1.98;;
59239;SDS011;45010;53.640;10.578;2023-03-01T10:44:08;4.53;;;1.92;;
59239;SDS011;45010;53.640;10.578;2023-03-01T10:47:31;2.78;;;1.50;;
59239;SDS011;45010;53.640;10.578;2023-03-01T10:50:31;1.60;;;1.50;;
59239;SDS011;45010;53.640;10.578;2023-03-01T10:53:33;1.80;;;1.23;;
59239;SDS011;45010;53.640;10.578;2023-03-01T10:56:45;2.10;;;1.50;;
59239;SDS011;45010;53.640;10.578;2023-03-01T10:59:51;3.35;;;1.70;;
59239;SDS011;45010;53.640;10.578;2023-03-01T11:03:11;2.35;;;1.70;;
59239;SDS011;45010;53.640;10.578;2023-03-01T11:09:20;2.95;;;1.50;;
59239;SDS011;45010;53.640;10.578;2023-03-01T11:12:22;2.30;;;1.60;;
59239;SDS011;45010;53.640;10.578;2023-03-01T11:15:25;2.25;;;1.45;;
59239;SDS011;45010;53.640;10.578;2023-03-01T11:18:29;1.90;;;1.25;;
59239;SDS011;45010;53.640;10.578;2023-03-01T11:21:30;2.83;;;1.42;;
59239;SDS011;45010;53.640;10.578;2023-03-01T11:27:45;3.45;;;2.45;;
59239;SDS011;45010;53.640;10.578;2023-03-01T11:34:12;3.10;;;2.72;;
59239;SDS011;45010;53.640;10.578;2023-03-01T11:44:16;2.00;;;1.80;;
59239;SDS011;45010;53.640;10.578;2023-03-01T11:50:39;3.35;;;2.08;;
59239;SDS011;45010;53.640;10.578;2023-03-01T11:54:00;2.75;;;1.88;;
59239;SDS011;45010;53.640;10.578;2023-03-01T11:57:38;2.30;;;1.70;;
59239;SDS011;45010;53.640;10.578;2023-03-01T12:14:24;5.05;;;3.28;;
59239;SDS011;45010;53.640;10.578;2023-03-01T12:28:16;5.43;;;2.95;;
59239;SDS011;45010;53.640;10.578;2023-03-01T12:31:30;3.55;;;2.70;;
59239;SDS011;45010;53.640;10.578;2023-03-01T12:38:05;4.20;;;2.63;;
59239;SDS011;45010;53.640;10.578;2023-03-01T12:44:55;3.00;;;2.45;;
59239;SDS011;45010;53.640;10.578;2023-03-01T12:48:05;5.20;;;2.55;;
59239;SDS011;45010;53.640;10.578;2023-03-01T12:51:20;4.32;;;2.58;;
59239;SDS011;45010;53.640;10.578;2023-03-01T12:54:31;5.75;;;2.38;;
59239;SDS011;45010;53.640;10.578;2023-03-01T12:57:34;2.90;;;2.03;;
59239;SDS011;45010;53.640;10.578;2023-03-01T13:00:48;2.53;;;2.13;;
59239;SDS011;45010;53.640;10.578;2023-03-01T13:07:31;3.90;;;2.67;;
59239;SDS011;45010;53.640;10.578;2023-03-01T13:10:42;3.03;;;2.50;;
59239;SDS011;45010;53.640;10.578;2023-03-01T13:13:46;3.78;;;2.42;;
59239;SDS011;45010;53.640;10.578;2023-03-01T13:16:49;2.53;;;2.25;;
59239;SDS011;45010;53.640;10.578;2023-03-01T13:19:57;3.75;;;2.60;;
59239;SDS011;45010;53.640;10.578;2023-03-01T13:26:26;3.50;;;2.50;;
59239;SDS011;45010;53.640;10.578;2023-03-01T13:29:26;3.80;;;1.95;;
59239;SDS011;45010;53.640;10.578;2023-03-01T13:32:28;3.05;;;2.05;;
59239;SDS011;45010;53.640;10.578;2023-03-01T13:35:41;4.07;;;2.30;;
59239;SDS011;45010;53.640;10.578;2023-03-01T13:41:57;2.95;;;1.50;;
59239;SDS011;45010;53.640;10.578;2023-03-01T13:44:58;3.53;;;1.80;;
59239;SDS011;45010;53.640;10.578;2023-03-01T13:48:00;2.58;;;1.73;;
59239;SDS011;45010;53.640;10.578;2023-03-01T13:51:06;3.15;;;1.73;;
59239;SDS011;45010;53.640;10.578;2023-03-01T13:54:10;2.47;;;1.70;;
59239;SDS011;45010;53.640;10.578;2023-03-01T13:57:12;2.47;;;1.88;;
59239;SDS011;45010;53.640;10.578;2023-03-01T14:00:25;3.33;;;1.40;;
59239;SDS011;45010;53.640;10.578;2023-03-01T14:03:40;3.65;;;1.80;;
59239;SDS011;45010;53.640;10.578;2023-03-01T14:06:41;2.03;;;1.52;;
59239;SDS011;45010;53.640;10.578;2023-03-01T14:09:42;4.70;;;1.58;;
59239;SDS011;45010;53.640;10.578;2023-03-01T14:16:00;2.70;;;1.60;;
59239;SDS011;45010;53.640;10.578;2023-03-01T14:19:22;3.60;;;1.90;;
59239;SDS011;45010;53.640;10.578;2023-03-01T14:22:29;1.80;;;1.60;;
59239;SDS011;45010;53.640;10.578;2023-03-01T14:25:33;2.10;;;1.58;;
59239;SDS011;45010;53.640;10.578;2023-03-01T14:28:36;2.33;;;1.90;;
59239;SDS011;45010;53.640;10.578;2023-03-01T14:31:39;3.60;;;2.40;;
59239;SDS011;45010;53.640;10.578;2023-03-01T14:34:49;3.70;;;3.10;;
59239;SDS011;45010;53.640;10.578;2023-03-01T14:37:51;3.10;;;2.60;;
59239;SDS011;45010;53.640;10.578;2023-03-01T14:40:51;3.88;;;2.35;;
59239;SDS011;45010;53.640;10.578;2023-03-01T14:43:57;2.28;;;1.95;;
59239;SDS011;45010;53.640;10.578;2023-03-01T14:47:00;2.28;;;1.83;;
59239;SDS011;45010;53.640;10.578;2023-03-01T14:50:09;1.85;;;1.58;;
59239;SDS011;45010;53.640;10.578;2023-03-01T14:53:24;1.33;;;1.13;;
59239;SDS011;45010;53.640;10.578;2023-03-01T14:56:27;3.05;;;1.35;;
59239;SDS011;45010;53.640;10.578;2023-03-01T14:59:44;1.38;;;1.15;;
59239;SDS011;45010;53.640;10.578;2023-03-01T15:02:45;2.30;;;1.00;;
59239;SDS011;45010;53.640;10.578;2023-03-01T15:05:49;1.55;;;1.00;;
59239;SDS011;45010;53.640;10.578;2023-03-01T15:08:51;1.45;;;1.30;;
59239;SDS011;45010;53.640;10.578;2023-03-01T15:11:54;2.70;;;1.13;;
59239;SDS011;45010;53.640;10.578;2023-03-01T15:14:57;1.65;;;1.00;;
59239;SDS011;45010;53.640;10.578;2023-03-01T15:17:59;1.77;;;0.98;;
59239;SDS011;45010;53.640;10.578;2023-03-01T15:21:05;0.93;;;0.80;;
59239;SDS011;45010;53.640;10.578;2023-03-01T15:27:18;1.70;;;1.02;;
59239;SDS011;45010;53.640;10.578;2023-03-01T15:33:37;1.10;;;1.00;;
59239;SDS011;45010;53.640;10.578;2023-03-01T15:36:40;1.65;;;1.00;;
59239;SDS011;45010;53.640;10.578;2023-03-01T15:39:55;0.82;;;0.80;;
59239;SDS011;45010;53.640;10.578;2023-03-01T15:42:57;2.22;;;0.90;;
59239;SDS011;45010;53.640;10.578;2023-03-01T15:45:58;0.93;;;0.80;;
59239;SDS011;45010;53.640;10.578;2023-03-01T15:49:03;1.80;;;1.05;;
59239;SDS011;45010;53.640;10.578;2023-03-01T15:55:50;1.08;;;0.85;;
59239;SDS011;45010;53.640;10.578;2023-03-01T15:58:51;1.20;;;0.80;;
59239;SDS011;45010;53.640;10.578;2023-03-01T16:01:51;2.95;;;0.70;;
59239;SDS011;45010;53.640;10.578;2023-03-01T16:04:51;0.73;;;0.73;;
59239;SDS011;45010;53.640;10.578;2023-03-01T16:07:53;2.15;;;0.90;;
59239;SDS011;45010;53.640;10.578;2023-03-01T16:10:54;0.88;;;0.80;;
59239;SDS011;45010;53.640;10.578;2023-03-01T16:13:54;1.20;;;0.80;;
59239;SDS011;45010;53.640;10.578;2023-03-01T16:16:55;1.17;;;0.80;;
59239;SDS011;45010;53.640;10.578;2023-03-01T16:19:55;1.27;;;0.90;;
59239;SDS011;45010;53.640;10.578;2023-03-01T16:22:58;1.50;;;0.82;;
59239;SDS011;45010;53.640;10.578;2023-03-01T16:26:00;1.30;;;1.05;;
59239;SDS011;45010;53.640;10.578;2023-03-01T16:29:00;0.90;;;0.77;;
59239;SDS011;45010;53.640;10.578;2023-03-01T16:32:01;1.40;;;0.90;;
59239;SDS011;45010;53.640;10.578;2023-03-01T16:35:02;0.95;;;0.68;;
59239;SDS011;45010;53.640;10.578;2023-03-01T16:38:02;1.50;;;0.98;;
59239;SDS011;45010;53.640;10.578;2023-03-01T16:41:03;0.70;;;0.70;;
59239;SDS011;45010;53.640;10.578;2023-03-01T16:44:03;1.58;;;1.13;;
59239;SDS011;45010;53.640;10.578;2023-03-01T16:47:04;4.43;;;2.45;;
59239;SDS011;45010;53.640;10.578;2023-03-01T16:50:04;7.18;;;2.45;;
59239;SDS011;45010;53.640;10.578;2023-03-01T16:53:05;10.73;;;3.80;;
59239;SDS011;45010;53.640;10.578;2023-03-01T16:56:06;11.02;;;3.75;;
59239;SDS011;45010;53.640;10.578;2023-03-01T16:59:08;9.48;;;4.03;;
59239;SDS011;45010;53.640;10.578;2023-03-01T17:02:09;8.70;;;3.22;;
59239;SDS011;45010;53.640;10.578;2023-03-01T17:05:12;8.77;;;3.20;;
59239;SDS011;45010;53.640;10.578;2023-03-01T17:08:12;11.63;;;3.13;;
59239;SDS011;45010;53.640;10.578;2023-03-01T17:11:14;8.75;;;3.38;;
59239;SDS011;45010;53.640;10.578;2023-03-01T17:14:16;6.85;;;2.67;;
59239;SDS011;45010;53.640;10.578;2023-03-01T17:17:16;8.60;;;3.47;;
59239;SDS011;45010;53.640;10.578;2023-03-01T17:20:17;9.73;;;2.90;;
59239;SDS011;45010;53.640;10.578;2023-03-01T17:23:17;5.90;;;2.80;;
59239;SDS011;45010;53.640;10.578;2023-03-01T17:26:18;6.60;;;3.08;;
59239;SDS011;45010;53.640;10.578;2023-03-01T17:29:18;7.40;;;2.55;;
59239;SDS011;45010;53.640;10.578;2023-03-01T17:32:18;4.90;;;2.20;;
59239;SDS011;45010;53.640;10.578;2023-03-01T17:35:19;6.10;;;2.30;;
59239;SDS011;45010;53.640;10.578;2023-03-01T17:38:19;5.60;;;2.72;;
59239;SDS011;45010;53.640;10.578;2023-03-01T17:41:19;4.65;;;2.17;;
59239;SDS011;45010;53.640;10.578;2023-03-01T17:44:20;5.07;;;2.10;;
59239;SDS011;45010;53.640;10.578;2023-03-01T17:47:21;5.63;;;2.10;;
59239;SDS011;45010;53.640;10.578;2023-03-01T17:50:21;3.50;;;2.05;;
59239;SDS011;45010;53.640;10.578;2023-03-01T17:53:21;5.43;;;1.95;;
59239;SDS011;45010;53.640;10.578;2023-03-01T17:56:22;3.38;;;2.15;;
59239;SDS011;45010;53.640;10.578;2023-03-01T17:59:22;5.25;;;2.50;;
59239;SDS011;45010;53.640;10.578;2023-03-01T18:02:22;6.38;;;2.50;;
59239;SDS011;45010;53.640;10.578;2023-03-01T18:05:24;3.63;;;1.73;;
59239;SDS011;45010;53.640;10.578;2023-03-01T18:08:24;5.57;;;1.90;;
59239;SDS011;45010;53.640;10.578;2023-03-01T18:11:25;3.70;;;1.90;;
59239;SDS011;45010;53.640;10.578;2023-03-01T18:14:26;4.63;;;1.75;;
59239;SDS011;45010;53.640;10.578;2023-03-01T18:17:28;4.68;;;2.00;;
59239;SDS011;45010;53.640;10.578;2023-03-01T18:20:29;2.92;;;1.60;;
59239;SDS011;45010;53.640;10.578;2023-03-01T18:23:32;3.08;;;1.80;;
59239;SDS011;45010;53.640;10.578;2023-03-01T18:26:33;4.75;;;1.90;;
59239;SDS011;45010;53.640;10.578;2023-03-01T18:29:35;4.90;;;2.05;;
59239;SDS011;45010;53.640;10.578;2023-03-01T18:32:36;4.25;;;2.03;;
59239;SDS011;45010;53.640;10.578;2023-03-01T18:35:38;4.25;;;1.90;;
59239;SDS011;45010;53.640;10.578;2023-03-01T18:38:38;3.30;;;1.67;;
59239;SDS011;45010;53.640;10.578;2023-03-01T18:41:39;2.78;;;1.38;;
59239;SDS011;45010;53.640;10.578;2023-03-01T18:44:40;4.13;;;1.83;;
59239;SDS011;45010;53.640;10.578;2023-03-01T18:47:40;3.85;;;1.90;;
59239;SDS011;45010;53.640;10.578;2023-03-01T18:50:40;2.53;;;1.45;;
59239;SDS011;45010;53.640;10.578;2023-03-01T18:53:41;3.72;;;2.05;;
59239;SDS011;45010;53.640;10.578;2023-03-01T18:56:41;2.45;;;1.80;;
59239;SDS011;45010;53.640;10.578;2023-03-01T18:59:42;3.60;;;1.95;;
59239;SDS011;45010;53.640;10.578;2023-03-01T19:02:42;2.90;;;1.70;;
59239;SDS011;45010;53.640;10.578;2023-03-01T19:05:42;1.77;;;1.35;;
59239;SDS011;45010;53.640;10.578;2023-03-01T19:08:43;2.67;;;1.30;;
59239;SDS011;45010;53.640;10.578;2023-03-01T19:11:44;2.20;;;1.63;;
59239;SDS011;45010;53.640;10.578;2023-03-01T19:14:44;2.70;;;1.48;;
59239;SDS011;45010;53.640;10.578;2023-03-01T19:17:45;2.17;;;1.30;;
59239;SDS011;45010;53.640;10.578;2023-03-01T19:20:45;2.38;;;1.33;;
59239;SDS011;45010;53.640;10.578;2023-03-01T19:23:46;2.30;;;1.38;;
59239;SDS011;45010;53.640;10.578;2023-03-01T19:26:49;5.25;;;1.70;;
59239;SDS011;45010;53.640;10.578;2023-03-01T19:29:49;2.88;;;1.40;;